Time;durP1;ratioP1;P1;durP2;ratioP2;P2;SDS_P1;SDS_P2;PMS_P1;PMS_P2;Temp;Humidity;BMP_temperature;BMP_pressure;BME280_temperature;BME280_humidity;BME280_pressure;Samples;Min_cycle;Max_cycle;Signal;HPM_P1;HPM_P2
2022/12/24 00:01:05;;;;;;;20.27;2.75;;;7.30;99.90;;;;;;5070478;28;20052;-58
2022/12/24 00:03:36;;;;;;;23.92;3.13;;;7.40;99.90;;;;;;5068455;28;20048;-58
2022/12/24 00:06:17;;;;;;;13.05;2.40;;;7.40;99.90;;;;;;5088496;28;20043;-58
2022/12/24 00:08:44;;;;;;;17.05;2.30;;;7.40;99.90;;;;;;5086911;28;20055;-58
2022/12/24 00:11:12;;;;;;;26.42;2.95;;;7.50;99.90;;;;;;5085243;28;20062;-58
2022/12/24 00:13:39;;;;;;;25.50;3.65;;;7.50;99.90;;;;;;5087080;28;20399;-57
2022/12/24 00:16:07;;;;;;;19.65;2.25;;;7.50;99.90;;;;;;5085394;28;20487;-59
2022/12/24 00:18:35;;;;;;;25.80;2.47;;;7.40;99.90;;;;;;5084618;28;20044;-58
2022/12/24 00:21:12;;;;;;;15.30;1.85;;;7.40;99.90;;;;;;5085236;28;20040;-59
2022/12/24 00:23:40;;;;;;;16.65;2.97;;;7.40;99.90;;;;;;5087838;28;20402;-63
2022/12/24 00:26:07;;;;;;;22.98;2.58;;;7.40;99.90;;;;;;5087823;28;20491;-58
2022/12/24 00:28:35;;;;;;;18.52;2.50;;;7.40;99.90;;;;;;5086241;28;20051;-58
2022/12/24 00:31:15;;;;;;;17.42;1.90;;;7.40;99.90;;;;;;5072200;28;20044;-58
2022/12/24 00:33:45;;;;;;;23.80;2.88;;;7.40;99.90;;;;;;5069943;28;20392;-62
2022/12/24 00:36:13;;;;;;;;;;;7.40;99.90;;;;;;5071910;28;20055;-63
2022/12/24 00:38:41;;;;;;;18.45;2.72;;;7.30;99.90;;;;;;5087578;28;19927;-60
2022/12/24 00:41:24;;;;;;;18.92;2.17;;;7.30;99.90;;;;;;5086346;28;20600;-61
2022/12/24 00:43:55;;;;;;;18.92;2.60;;;7.20;99.90;;;;;;5086583;28;20040;-59
2022/12/24 00:46:24;;;;;;;22.85;3.78;;;7.10;99.90;;;;;;5077047;28;20040;-61
2022/12/24 00:48:52;;;;;;;29.75;3.33;;;7.10;99.90;;;;;;5087843;28;20052;-60
2022/12/24 00:51:21;;;;;;;25.92;2.88;;;7.00;99.90;;;;;;5087218;28;20048;-63
2022/12/24 00:53:49;;;;;;;20.17;3.17;;;7.00;99.90;;;;;;5087673;28;20056;-60
2022/12/24 00:56:17;;;;;;;22.67;1.92;;;7.00;99.90;;;;;;5086721;28;20044;-59
2022/12/24 00:58:45;;;;;;;19.88;2.45;;;6.90;99.90;;;;;;5087367;28;20441;-59
2022/12/24 01:01:13;;;;;;;16.17;2.70;;;6.90;99.90;;;;;;5082758;28;20047;-61
2022/12/24 01:03:41;;;;;;;15.88;1.98;;;6.90;99.90;;;;;;5084393;28;20052;-62
2022/12/24 01:06:17;;;;;;;23.95;2.28;;;6.80;99.90;;;;;;5084375;28;20052;-58
2022/12/24 01:08:45;;;;;;;25.83;2.38;;;6.70;99.90;;;;;;5087580;28;20052;-58
2022/12/24 01:11:13;;;;;;;25.77;3.08;;;6.70;99.90;;;;;;5087228;28;20048;-58
2022/12/24 01:13:41;;;;;;;19.10;2.20;;;6.70;99.90;;;;;;5087505;28;20067;-59
2022/12/24 01:16:19;;;;;;;16.55;2.58;;;6.70;99.90;;;;;;5039442;28;20048;-59
2022/12/24 01:18:47;;;;;;;20.17;2.30;;;6.70;99.90;;;;;;5085827;28;20036;-61
2022/12/24 01:21:15;;;;;;;14.35;2.05;;;6.60;99.90;;;;;;5086703;28;20051;-58
2022/12/24 01:23:43;;;;;;;22.02;3.45;;;6.70;99.90;;;;;;5086485;28;20051;-57
2022/12/24 01:26:11;;;;;;;22.73;1.88;;;6.60;99.90;;;;;;5087310;28;20040;-57
2022/12/24 01:28:39;;;;;;;28.10;2.50;;;6.60;99.90;;;;;;5087388;28;20043;-58
2022/12/24 01:31:15;;;;;;;28.00;2.60;;;6.70;99.90;;;;;;5086176;28;20054;-58
2022/12/24 01:33:44;;;;;;;20.35;2.85;;;6.70;99.90;;;;;;5088388;28;20044;-59
2022/12/24 01:36:12;;;;;;;16.98;2.33;;;6.80;99.90;;;;;;5071384;28;20139;-59
2022/12/24 01:38:40;;;;;;;23.02;2.45;;;6.70;99.90;;;;;;5080857;28;20050;-61
2022/12/24 01:44:21;;;;;;;21.23;2.78;;;6.80;99.90;;;;;;5073423;28;20052;-60
2022/12/24 01:47:06;;;;;;;19.58;2.95;;;6.80;99.90;;;;;;5082507;28;20056;-60
2022/12/24 01:49:36;;;;;;;10.25;2.28;;;6.80;99.90;;;;;;5088472;28;20043;-59
2022/12/24 01:52:05;;;;;;;;;;;7.80;99.90;;;;;;5090189;28;20044;-60
2022/12/24 01:54:52;;;;;;;23.13;2.78;;;6.80;99.90;;;;;;5089646;28;19924;-59
2022/12/24 01:57:38;;;;;;;14.93;2.03;;;6.90;99.90;;;;;;5089490;28;20052;-60
2022/12/24 02:00:09;;;;;;;27.20;2.83;;;6.80;99.90;;;;;;5088466;28;20044;-61
2022/12/24 02:02:40;;;;;;;20.00;3.05;;;6.90;99.90;;;;;;5084575;28;20044;-60
2022/12/24 02:05:46;;;;;;;12.63;2.15;;;6.90;99.90;;;;;;5090227;28;20379;-60
2022/12/24 02:08:15;;;;;;;14.07;2.45;;;6.90;99.90;;;;;;5089454;28;20425;-62
2022/12/24 02:10:43;;;;;;;15.60;2.17;;;6.90;99.90;;;;;;5090595;28;20040;-62
2022/12/24 02:13:13;;;;;;;11.13;2.05;;;6.90;99.90;;;;;;5090462;28;20070;-59
2022/12/24 02:16:05;;;;;;;17.15;1.88;;;7.00;99.90;;;;;;5084379;28;20384;-58
2022/12/24 02:18:52;;;;;;;17.77;2.42;;;7.00;99.90;;;;;;5078327;28;20055;-58
2022/12/24 02:21:26;;;;;;;11.75;1.55;;;7.00;99.90;;;;;;5074113;28;20051;-59
2022/12/24 02:24:28;;;;;;;11.88;1.40;;;7.00;99.90;;;;;;5089973;28;20052;-59
2022/12/24 02:27:08;;;;;;;10.38;1.88;;;7.00;99.90;;;;;;5069862;28;20500;-59
2022/12/24 02:30:11;;;;;;;25.50;2.53;;;7.00;99.90;;;;;;5087313;28;20051;-58
2022/12/24 02:32:51;;;;;;;16.50;1.48;;;7.00;99.90;;;;;;5087635;28;20048;-58
2022/12/24 02:35:51;;;;;;;12.38;1.13;;;7.00;99.90;;;;;;5092488;28;20036;-58
2022/12/24 02:38:23;;;;;;;17.20;1.50;;;7.00;99.90;;;;;;5089426;28;20052;-59
2022/12/24 02:41:15;;;;;;;11.40;1.63;;;6.90;99.90;;;;;;5093103;28;20075;-59
2022/12/24 02:43:45;;;;;;;10.10;1.20;;;6.90;99.90;;;;;;5090971;28;20036;-59
2022/12/24 02:46:20;;;;;;;13.48;1.88;;;6.90;99.90;;;;;;5090908;28;20048;-59
2022/12/24 02:48:49;;;;;;;5.28;1.55;;;6.90;99.90;;;;;;5093203;28;20066;-58
2022/12/24 02:51:23;;;;;;;8.60;1.48;;;7.00;99.90;;;;;;5093144;28;20391;-58
2022/12/24 02:53:51;;;;;;;7.55;1.48;;;6.90;99.90;;;;;;5093027;28;20403;-59
2022/12/24 02:56:49;;;;;;;8.88;0.80;;;6.90;99.90;;;;;;5093055;28;20492;-58
2022/12/24 02:59:22;;;;;;;8.20;1.30;;;6.80;99.90;;;;;;5091168;28;20047;-58
2022/12/24 03:01:58;;;;;;;10.40;1.48;;;6.80;99.90;;;;;;5091263;28;20411;-61
2022/12/24 03:04:50;;;;;;;6.72;1.02;;;6.80;99.90;;;;;;5092739;28;20062;-62
2022/12/24 03:07:27;;;;;;;7.25;1.13;;;6.70;99.90;;;;;;5072213;28;20131;-59
2022/12/24 03:10:13;;;;;;;5.50;0.80;;;6.70;99.90;;;;;;5078796;28;20051;-58
2022/12/24 03:12:45;;;;;;;11.45;1.00;;;6.60;99.90;;;;;;5086885;28;20468;-63
2022/12/24 03:15:16;;;;;;;3.60;0.70;;;6.50;99.90;;;;;;5091272;28;20043;-62
2022/12/24 03:17:46;;;;;;;5.57;1.02;;;6.50;99.90;;;;;;5091731;28;20040;-63
2022/12/24 03:20:20;;;;;;;8.77;0.80;;;6.50;99.90;;;;;;5092232;28;20395;-61
2022/12/24 03:22:47;;;;;;;9.50;1.15;;;6.50;99.90;;;;;;5090830;28;20052;-61
2022/12/24 03:25:15;;;;;;;8.68;0.85;;;6.50;99.90;;;;;;5092373;28;20047;-63
2022/12/24 03:27:43;;;;;;;5.82;0.98;;;6.40;99.90;;;;;;5092229;28;20059;-63
2022/12/24 03:30:14;;;;;;;8.25;2.22;;;6.40;99.90;;;;;;5090402;28;20048;-61
2022/12/24 03:32:41;;;;;;;5.25;0.63;;;6.30;99.90;;;;;;5090996;28;20036;-64
2022/12/24 03:35:10;;;;;;;5.90;0.93;;;6.30;99.90;;;;;;5092608;28;20063;-62
2022/12/24 03:37:37;;;;;;;5.53;1.10;;;6.30;99.90;;;;;;5091855;28;20040;-61
2022/12/24 03:40:06;;;;;;;14.57;1.00;;;6.40;99.90;;;;;;5092114;28;20040;-60
2022/12/24 03:42:35;;;;;;;8.20;1.08;;;6.40;99.90;;;;;;5091823;28;20052;-59
2022/12/24 03:45:03;;;;;;;7.22;1.02;;;6.40;99.90;;;;;;5091307;28;20126;-59
2022/12/24 03:47:31;;;;;;;3.72;0.63;;;6.30;99.90;;;;;;5091951;28;20040;-59
2022/12/24 03:49:58;;;;;;;6.07;0.82;;;6.30;99.90;;;;;;5090976;28;20040;-59
2022/12/24 03:52:26;;;;;;;5.97;1.73;;;6.20;99.90;;;;;;5091289;28;20059;-60
2022/12/24 03:54:53;;;;;;;7.82;0.50;;;6.20;99.90;;;;;;5091878;28;20040;-59
2022/12/24 03:57:21;;;;;;;6.50;0.90;;;6.10;99.90;;;;;;5091134;28;20052;-61
2022/12/24 03:59:49;;;;;;;5.75;0.90;;;5.90;99.90;;;;;;5091741;28;20403;-59
2022/12/24 04:02:17;;;;;;;8.82;0.77;;;5.90;99.90;;;;;;5090870;28;20047;-60
2022/12/24 04:04:45;;;;;;;9.68;0.80;;;5.80;99.90;;;;;;5091855;28;20066;-61
2022/12/24 04:07:12;;;;;;;9.38;0.88;;;5.70;99.90;;;;;;5089950;28;20043;-58
2022/12/24 04:09:40;;;;;;;19.92;1.30;;;5.70;99.90;;;;;;5091766;28;20044;-58
2022/12/24 04:12:08;;;;;;;10.77;1.15;;;5.60;99.90;;;;;;5091721;28;20043;-59
2022/12/24 04:14:35;;;;;;;11.77;2.30;;;5.50;99.90;;;;;;5090931;28;20066;-58
2022/12/24 04:17:03;;;;;;;9.75;1.20;;;5.40;99.90;;;;;;5091241;28;20047;-58
2022/12/24 04:19:31;;;;;;;7.15;1.50;;;5.30;99.90;;;;;;5091868;28;20071;-58
2022/12/24 04:21:58;;;;;;;6.57;1.02;;;5.30;99.90;;;;;;5090891;28;20056;-58
2022/12/24 04:24:26;;;;;;;8.82;0.90;;;5.20;99.90;;;;;;5091247;28;20048;-58
2022/12/24 04:26:54;;;;;;;6.68;1.10;;;5.10;99.90;;;;;;5090613;28;20052;-58
2022/12/24 04:29:21;;;;;;;8.15;1.27;;;5.00;99.90;;;;;;5091520;28;20048;-58
2022/12/24 04:31:49;;;;;;;5.55;0.70;;;5.20;99.90;;;;;;5091153;28;20056;-59
2022/12/24 04:34:17;;;;;;;12.60;1.40;;;4.90;99.90;;;;;;5091417;28;20498;-59
2022/12/24 04:36:44;;;;;;;10.65;1.45;;;4.80;99.90;;;;;;5090163;28;20055;-59
2022/12/24 04:39:12;;;;;;;4.90;0.80;;;4.70;99.90;;;;;;5090206;28;20044;-59
2022/12/24 04:41:40;;;;;;;6.72;0.70;;;4.60;99.90;;;;;;5091193;28;20051;-60
2022/12/24 04:44:08;;;;;;;6.03;0.98;;;4.60;99.90;;;;;;5091585;28;20040;-59
2022/12/24 04:46:35;;;;;;;9.15;1.35;;;4.50;99.90;;;;;;5089363;28;20044;-59
2022/12/24 04:49:03;;;;;;;5.57;0.85;;;4.40;99.90;;;;;;5091382;28;20051;-59
2022/12/24 04:51:31;;;;;;;9.20;1.00;;;4.40;99.90;;;;;;5091250;28;20040;-59
2022/12/24 04:53:59;;;;;;;15.98;1.70;;;4.40;99.90;;;;;;5090685;28;20048;-59
2022/12/24 04:56:29;;;;;;;19.20;1.50;;;4.40;99.90;;;;;;5090154;28;20507;-58
2022/12/24 04:59:00;;;;;;;6.05;0.90;;;4.40;99.90;;;;;;5091183;28;20052;-59
2022/12/24 05:01:30;;;;;;;9.35;2.15;;;4.40;99.90;;;;;;5091002;28;20044;-59
2022/12/24 05:03:58;;;;;;;12.70;1.25;;;4.40;99.90;;;;;;5091118;28;20502;-58
2022/12/24 05:06:29;;;;;;;4.85;0.80;;;4.40;99.90;;;;;;5090487;28;20406;-59
2022/12/24 05:08:58;;;;;;;20.20;1.83;;;4.40;99.90;;;;;;5093744;28;20513;-59
2022/12/24 05:11:27;;;;;;;8.48;1.25;;;4.50;99.90;;;;;;5095050;28;20052;-60
2022/12/24 05:13:54;;;;;;;14.80;1.27;;;4.50;99.90;;;;;;5092676;28;20055;-59
2022/12/24 05:16:22;;;;;;;18.77;1.98;;;4.60;99.90;;;;;;5093204;28;20396;-60
2022/12/24 05:18:53;;;;;;;16.35;2.25;;;4.70;99.90;;;;;;5094310;28;20377;-60
2022/12/24 05:21:23;;;;;;;8.10;1.83;;;4.70;99.90;;;;;;5094783;28;20040;-59
2022/12/24 05:26:48;;;;;;;20.63;1.35;;;4.80;99.90;;;;;;5085540;28;20044;-60
2022/12/24 05:29:16;;;;;;;;;;;4.90;99.90;;;;;;5093913;28;20044;-59
2022/12/24 05:31:45;;;;;;;15.80;1.48;;;4.90;99.90;;;;;;5094720;28;19927;-60
2022/12/24 05:34:14;;;;;;;20.10;2.83;;;4.90;99.90;;;;;;5094482;28;20044;-59
2022/12/24 05:36:45;;;;;;;14.07;1.98;;;5.00;99.90;;;;;;5094371;28;20051;-59
2022/12/24 05:39:15;;;;;;;20.77;1.45;;;5.00;99.90;;;;;;5092998;28;20040;-59
2022/12/24 05:41:44;;;;;;;13.63;1.90;;;5.00;99.90;;;;;;5092829;28;20472;-58
2022/12/24 05:44:13;;;;;;;11.02;1.15;;;5.00;99.90;;;;;;5093570;28;20044;-59
2022/12/24 05:46:41;;;;;;;17.70;1.65;;;5.00;99.90;;;;;;5092272;28;20052;-58
2022/12/24 05:49:09;;;;;;;9.05;1.00;;;4.90;99.90;;;;;;5075388;28;20048;-59
2022/12/24 05:51:39;;;;;;;21.77;2.83;;;4.90;99.90;;;;;;5070657;28;20400;-60
2022/12/24 05:54:07;;;;;;;;;;;4.80;99.90;;;;;;5084633;28;20044;-60
2022/12/24 05:56:34;;;;;;;8.82;1.65;;;4.70;99.90;;;;;;5090832;28;20386;-59
2022/12/24 05:59:02;;;;;;;8.15;1.40;;;4.70;99.90;;;;;;5089012;28;20064;-59
2022/12/24 06:01:32;;;;;;;18.52;1.98;;;4.60;99.90;;;;;;5087140;28;20048;-60
2022/12/24 06:04:01;;;;;;;14.60;1.08;;;4.60;99.90;;;;;;5066576;28;20049;-61
2022/12/24 06:06:28;;;;;;;12.27;1.77;;;4.50;99.90;;;;;;5067736;28;20052;-62
2022/12/24 06:08:56;;;;;;;10.82;1.83;;;4.40;99.90;;;;;;5087591;28;20052;-63
2022/12/24 06:11:26;;;;;;;11.43;2.22;;;4.40;99.90;;;;;;5090655;28;20044;-63
2022/12/24 06:13:54;;;;;;;;;;;4.30;99.90;;;;;;5090663;28;20040;-60
2022/12/24 06:16:23;;;;;;;11.43;1.33;;;4.20;99.90;;;;;;5089100;28;19924;-60
2022/12/24 06:18:51;;;;;;;10.48;1.58;;;4.30;99.90;;;;;;5086657;28;20048;-59
2022/12/24 06:21:20;;;;;;;11.32;1.17;;;4.20;99.90;;;;;;5074689;28;20060;-58
2022/12/24 06:23:47;;;;;;;11.82;1.30;;;4.20;99.90;;;;;;5082320;28;20044;-59
2022/12/24 06:26:19;;;;;;;6.07;1.63;;;4.10;99.90;;;;;;5083570;28;20048;-59
2022/12/24 06:28:49;;;;;;;11.98;1.23;;;4.10;99.90;;;;;;5082464;28;20060;-59
2022/12/24 06:31:19;;;;;;;16.65;1.40;;;4.10;99.90;;;;;;5086931;28;20051;-59
2022/12/24 06:33:47;;;;;;;10.15;1.20;;;4.10;99.90;;;;;;5089874;28;20040;-59
2022/12/24 06:36:23;;;;;;;10.55;1.40;;;4.10;99.90;;;;;;5078840;28;20372;-58
2022/12/24 06:38:53;;;;;;;12.88;1.52;;;4.10;99.90;;;;;;5075089;28;20517;-58
2022/12/24 06:41:22;;;;;;;14.88;1.40;;;4.00;99.90;;;;;;5067744;28;20430;-59
2022/12/24 06:43:51;;;;;;;15.50;2.67;;;4.00;99.90;;;;;;5084234;28;20040;-60
2022/12/24 06:46:19;;;;;;;8.63;1.50;;;4.00;99.90;;;;;;5088453;28;20146;-59
2022/12/24 06:48:47;;;;;;;13.25;1.85;;;3.90;99.90;;;;;;5089817;28;20040;-59
2022/12/24 06:51:18;;;;;;;16.30;2.58;;;3.80;99.90;;;;;;5078930;28;20052;-60
2022/12/24 06:53:50;;;;;;;12.05;1.92;;;3.80;99.90;;;;;;5081447;28;20051;-59
2022/12/24 06:56:19;;;;;;;13.73;2.40;;;3.70;99.90;;;;;;5084727;28;20396;-58
2022/12/24 06:58:47;;;;;;;7.50;1.63;;;3.70;99.90;;;;;;5086236;28;20059;-59
2022/12/24 07:01:17;;;;;;;8.82;1.60;;;3.60;99.90;;;;;;5086224;28;20036;-61
2022/12/24 07:03:47;;;;;;;10.35;1.77;;;3.60;99.90;;;;;;5085736;28;20048;-58
2022/12/24 07:06:23;;;;;;;25.43;2.07;;;3.60;99.90;;;;;;5077620;28;20045;-58
2022/12/24 07:08:51;;;;;;;14.07;1.85;;;3.70;99.90;;;;;;5084385;28;20297;-59
2022/12/24 07:11:20;;;;;;;36.95;2.67;;;3.70;99.90;;;;;;5088351;28;20499;-61
2022/12/24 07:13:48;;;;;;;12.23;2.47;;;3.70;99.90;;;;;;5088033;28;20044;-58
2022/12/24 07:16:16;;;;;;;9.48;1.67;;;3.70;99.90;;;;;;5084796;28;20059;-59
2022/12/24 07:18:44;;;;;;;20.48;1.80;;;3.60;99.90;;;;;;5085674;28;20044;-60
2022/12/24 07:21:11;;;;;;;15.93;2.22;;;3.60;99.90;;;;;;5083138;28;20047;-59
2022/12/24 07:23:39;;;;;;;19.33;2.67;;;3.70;99.90;;;;;;5085137;28;20044;-61
2022/12/24 07:26:07;;;;;;;18.23;2.22;;;3.80;99.90;;;;;;5087133;28;20052;-60
2022/12/24 07:28:35;;;;;;;15.73;1.92;;;4.00;99.90;;;;;;5086917;28;20036;-62
2022/12/24 07:31:03;;;;;;;20.95;2.20;;;4.10;99.90;;;;;;5088400;28;20044;-59
2022/12/24 07:33:31;;;;;;;21.23;3.55;;;4.20;99.90;;;;;;5089009;28;20040;-59
2022/12/24 07:36:04;;;;;;;24.00;2.08;;;4.50;99.90;;;;;;5076112;28;20048;-59
2022/12/24 07:38:34;;;;;;;20.15;2.03;;;4.50;99.90;;;;;;5087573;28;20048;-59
2022/12/24 07:41:01;;;;;;;19.40;2.83;;;4.50;99.90;;;;;;5088040;28;20062;-59
2022/12/24 07:43:32;;;;;;;16.73;2.10;;;4.60;99.90;;;;;;5088288;28;20044;-61
2022/12/24 07:46:01;;;;;;;25.33;2.67;;;;;;;;;;5085741;28;20035;-59
2022/12/24 07:48:30;;;;;;;16.60;1.83;;;4.80;99.90;;;;;;5082824;28;20411;-61
2022/12/24 07:50:59;;;;;;;25.63;3.05;;;4.80;99.90;;;;;;5083393;28;20515;-60
2022/12/24 07:53:35;;;;;;;26.17;2.90;;;4.90;99.90;;;;;;5081661;28;20048;-62
2022/12/24 07:56:04;;;;;;;19.70;2.70;;;4.90;99.90;;;;;;5088521;28;20044;-60
2022/12/24 07:58:39;;;;;;;23.85;2.40;;;4.90;99.90;;;;;;5088432;28;20044;-60
2022/12/24 08:01:08;;;;;;;32.92;3.38;;;4.90;99.90;;;;;;5087353;28;20391;-61
2022/12/24 08:03:39;;;;;;;18.73;2.15;;;4.80;99.90;;;;;;5083749;28;20044;-61
2022/12/24 08:06:08;;;;;;;14.48;1.77;;;4.80;99.90;;;;;;5081873;28;20489;-61
2022/12/24 08:08:36;;;;;;;11.43;2.53;;;4.80;99.90;;;;;;5085240;28;20442;-61
2022/12/24 08:11:06;;;;;;;12.98;2.22;;;4.70;99.90;;;;;;5085580;28;20051;-60
2022/12/24 08:13:34;;;;;;;20.40;1.95;;;4.70;99.90;;;;;;5087045;28;20044;-60
2022/12/24 08:16:02;;;;;;;15.10;2.25;;;4.60;99.90;;;;;;5083117;28;20330;-61
2022/12/24 08:18:32;;;;;;;16.52;2.47;;;4.60;99.90;;;;;;5082115;28;20739;-59
2022/12/24 08:21:00;;;;;;;17.98;2.15;;;4.50;99.90;;;;;;5082628;28;20048;-61
2022/12/24 08:23:28;;;;;;;17.33;2.75;;;4.40;99.90;;;;;;5077487;28;20679;-62
2022/12/24 08:25:56;;;;;;;11.93;2.03;;;4.40;99.90;;;;;;5085142;28;20032;-60
2022/12/24 08:28:23;;;;;;;19.58;2.50;;;4.30;99.90;;;;;;5086020;28;20675;-61
2022/12/24 08:30:51;;;;;;;11.73;1.38;;;5.00;99.90;;;;;;5085240;28;20048;-61
2022/12/24 08:33:19;;;;;;;8.10;1.40;;;4.10;99.90;;;;;;5085243;28;20706;-63
2022/12/24 08:35:52;;;;;;;10.43;1.40;;;3.90;99.90;;;;;;5067838;28;20055;-58
2022/12/24 08:38:21;;;;;;;11.15;1.77;;;3.80;99.90;;;;;;5080695;28;20063;-63
2022/12/24 08:40:49;;;;;;;11.82;2.17;;;3.70;99.90;;;;;;5083569;28;20055;-62
2022/12/24 08:43:17;;;;;;;16.88;3.30;;;3.60;99.90;;;;;;5082821;28;20495;-62
2022/12/24 08:45:47;;;;;;;13.52;2.53;;;3.60;99.90;;;;;;5088717;28;20048;-60
2022/12/24 08:48:15;;;;;;;18.00;2.70;;;3.50;99.90;;;;;;5088017;28;20040;-59
2022/12/24 08:50:43;;;;;;;10.07;2.35;;;3.40;99.90;;;;;;5088678;28;20036;-60
2022/12/24 08:53:12;;;;;;;14.02;2.60;;;3.40;99.90;;;;;;5079262;28;20055;-58
2022/12/24 08:55:41;;;;;;;17.23;3.05;;;;;;;;;;5087099;28;20406;-60
2022/12/24 08:58:08;;;;;;;11.93;3.30;;;3.30;99.90;;;;;;5087158;28;20063;-61
2022/12/24 09:00:36;;;;;;;9.55;2.90;;;3.30;99.90;;;;;;5085991;28;20044;-59
2022/12/24 09:03:04;;;;;;;11.45;2.30;;;3.30;99.90;;;;;;5088116;28;20413;-58
2022/12/24 09:05:32;;;;;;;20.98;3.58;;;3.30;99.90;;;;;;5087140;28;20044;-59
2022/12/24 09:08:00;;;;;;;15.68;2.30;;;3.40;99.90;;;;;;5081149;28;20036;-60
2022/12/24 09:10:28;;;;;;;16.85;2.03;;;3.60;99.90;;;;;;5065400;28;20071;-58
2022/12/24 09:12:56;;;;;;;14.88;2.85;;;;;;;;;;5081832;28;20036;-60
2022/12/24 09:15:24;;;;;;;26.90;2.55;;;3.60;99.90;;;;;;5088144;28;20048;-60
2022/12/24 09:17:52;;;;;;;15.48;3.08;;;3.60;99.90;;;;;;5074260;28;20392;-59
2022/12/24 09:20:19;;;;;;;24.60;2.92;;;3.70;99.90;;;;;;5067243;28;20407;-59
2022/12/24 09:22:47;;;;;;;27.20;2.67;;;3.70;99.90;;;;;;5077138;28;20067;-60
2022/12/24 09:25:15;;;;;;;21.27;2.40;;;3.80;99.90;;;;;;5086432;28;20036;-60
2022/12/24 09:27:42;;;;;;;27.25;3.28;;;3.90;99.90;;;;;;5080275;28;20059;-58
2022/12/24 09:30:11;;;;;;;20.10;2.53;;;4.00;99.90;;;;;;5086958;28;20048;-60
2022/12/24 09:32:38;;;;;;;24.20;2.35;;;4.10;99.90;;;;;;5087357;28;20056;-60
2022/12/24 09:35:06;;;;;;;28.25;2.67;;;4.10;99.90;;;;;;5086115;28;20052;-60
2022/12/24 09:37:34;;;;;;;15.63;2.90;;;4.30;99.90;;;;;;5079456;28;20036;-59
2022/12/24 09:40:06;;;;;;;35.40;2.92;;;4.40;99.90;;;;;;5087571;28;20051;-59
2022/12/24 09:43:05;;;;;;;16.83;2.80;;;4.50;99.90;;;;;;5086107;28;20111;-60
2022/12/24 09:45:40;;;;;;;36.72;3.08;;;4.60;99.90;;;;;;5076092;28;20055;-59
2022/12/24 09:48:27;;;;;;;20.58;3.20;;;4.80;99.90;;;;;;5086357;28;20484;-60
2022/12/24 09:51:08;;;;;;;24.90;3.35;;;4.80;99.90;;;;;;5086618;28;20055;-60
2022/12/24 09:53:54;;;;;;;23.88;2.70;;;4.90;99.90;;;;;;5081082;28;20554;-59
2022/12/24 09:56:27;;;;;;;16.60;3.13;;;5.00;99.90;;;;;;5087196;28;20043;-60
2022/12/24 09:58:59;;;;;;;30.77;2.55;;;5.10;99.90;;;;;;5087504;28;20044;-60
2022/12/24 10:01:30;;;;;;;22.05;3.33;;;5.20;99.90;;;;;;5086420;28;20344;-59
2022/12/24 10:04:03;;;;;;;11.70;2.60;;;5.40;99.90;;;;;;5083813;28;20051;-59
2022/12/24 10:06:39;;;;;;;26.83;2.65;;;5.50;99.90;;;;;;5075469;28;20044;-59
2022/12/24 10:09:06;;;;;;;17.65;2.95;;;5.50;99.90;;;;;;5084512;28;20044;-60
2022/12/24 10:11:53;;;;;;;37.42;4.93;;;5.60;99.90;;;;;;5085598;28;20052;-60
2022/12/24 10:14:43;;;;;;;25.70;2.63;;;5.70;99.90;;;;;;5086194;28;20044;-60
2022/12/24 10:17:37;;;;;;;15.60;1.83;;;5.70;99.90;;;;;;5083536;28;20052;-60
2022/12/24 10:20:29;;;;;;;16.60;1.80;;;5.80;99.90;;;;;;5083748;28;20040;-61
2022/12/24 10:23:19;;;;;;;29.42;2.40;;;5.90;99.90;;;;;;5083363;28;20153;-60
2022/12/24 10:26:23;;;;;;;21.50;3.63;;;5.90;99.90;;;;;;5085441;28;20044;-60
2022/12/24 10:28:59;;;;;;;21.67;2.45;;;5.90;99.90;;;;;;5084640;28;20044;-60
2022/12/24 10:31:38;;;;;;;21.48;2.40;;;6.00;99.90;;;;;;5075147;28;20060;-58
2022/12/24 10:34:14;;;;;;;18.33;3.20;;;6.00;99.90;;;;;;5083461;28;20044;-59
2022/12/24 10:36:41;;;;;;;21.33;2.70;;;6.10;99.90;;;;;;5086421;28;20644;-60
2022/12/24 10:39:18;;;;;;;24.05;2.67;;;6.20;99.90;;;;;;5087696;28;20056;-60
2022/12/24 10:41:51;;;;;;;15.25;2.85;;;6.30;99.90;;;;;;5089045;28;20055;-60
2022/12/24 10:44:22;;;;;;;22.00;2.67;;;6.30;99.90;;;;;;5083512;28;20430;-59
2022/12/24 10:46:50;;;;;;;15.15;1.60;;;6.40;99.90;;;;;;5088136;28;20510;-58
2022/12/24 10:49:47;;;;;;;20.75;2.58;;;6.40;99.90;;;;;;5088053;28;20055;-59
2022/12/24 10:52:20;;;;;;;12.80;2.45;;;6.50;99.90;;;;;;5070170;28;20542;-61
2022/12/24 10:55:12;;;;;;;19.02;2.33;;;6.60;99.90;;;;;;5087613;28;20047;-60
2022/12/24 10:57:41;;;;;;;23.73;2.63;;;6.60;99.90;;;;;;5088468;28;20040;-60
2022/12/24 11:00:20;;;;;;;11.82;2.03;;;6.70;99.90;;;;;;5083634;28;20420;-61
2022/12/24 11:02:48;;;;;;;10.63;1.55;;;6.70;99.90;;;;;;5078291;28;20399;-60
2022/12/24 11:05:32;;;;;;;18.30;2.90;;;6.80;99.90;;;;;;5076344;28;20039;-60
2022/12/24 11:08:16;;;;;;;16.27;3.03;;;6.90;99.90;;;;;;5087305;28;20055;-62
2022/12/24 11:10:57;;;;;;;16.33;1.63;;;7.00;99.90;;;;;;5081358;28;20664;-62
2022/12/24 11:13:38;;;;;;;16.80;2.35;;;7.10;99.90;;;;;;5080685;28;20062;-62
2022/12/24 11:16:21;;;;;;;18.90;2.20;;;7.40;99.90;;;;;;5085406;28;20044;-63
2022/12/24 11:18:55;;;;;;;16.45;1.98;;;7.40;99.90;;;;;;5086930;28;20055;-58
2022/12/24 11:21:28;;;;;;;14.85;2.88;;;7.50;99.90;;;;;;5081996;28;20491;-59
2022/12/24 11:23:58;;;;;;;12.85;1.60;;;7.60;99.90;;;;;;5084490;28;20044;-58
2022/12/24 11:26:29;;;;;;;17.83;2.70;;;7.80;99.90;;;;;;5034443;28;1301310;-58
2022/12/24 11:29:25;;;;;;;17.17;1.85;;;7.80;99.90;;;;;;5066646;28;20044;-59
2022/12/24 11:32:16;;;;;;;13.40;1.83;;;8.00;99.90;;;;;;5074307;28;20063;-58
2022/12/24 11:34:44;;;;;;;17.92;2.30;;;8.20;99.90;;;;;;5079335;28;20421;-58
2022/12/24 11:37:22;;;;;;;18.33;2.22;;;8.40;99.90;;;;;;5077132;28;20395;-57
2022/12/24 11:39:53;;;;;;;23.00;3.25;;;8.50;99.90;;;;;;5072555;28;20500;-59
2022/12/24 11:42:35;;;;;;;14.80;2.25;;;8.70;99.90;;;;;;5080872;28;20055;-58
2022/12/24 11:45:27;;;;;;;17.13;2.60;;;8.80;99.90;;;;;;5088516;28;20071;-58
2022/12/24 11:47:56;;;;;;;19.20;2.63;;;8.80;99.90;;;;;;5084722;28;20426;-57
2022/12/24 11:50:34;;;;;;;19.15;2.50;;;8.80;99.90;;;;;;5087673;28;20052;-58
2022/12/24 11:53:02;;;;;;;11.85;2.42;;;8.90;99.90;;;;;;5071862;28;20051;-57
2022/12/24 11:55:40;;;;;;;12.25;2.20;;;9.00;99.90;;;;;;5084122;28;20032;-58
2022/12/24 11:58:45;;;;;;;15.43;2.78;;;9.30;99.90;;;;;;5076859;28;20039;-59
2022/12/24 12:01:24;;;;;;;19.13;2.85;;;9.50;99.90;;;;;;5076710;28;20040;-59
2022/12/24 12:03:56;;;;;;;19.75;2.53;;;9.80;99.90;;;;;;5082311;28;20044;-60
2022/12/24 12:06:24;;;;;;;14.25;2.65;;;9.90;99.90;;;;;;5084631;28;20385;-58
2022/12/24 12:08:58;;;;;;;15.77;2.30;;;10.00;99.90;;;;;;5088334;28;20508;-58
2022/12/24 12:11:27;;;;;;;21.30;3.13;;;10.20;99.90;;;;;;5083543;28;20050;-61
2022/12/24 12:13:59;;;;;;;15.60;3.08;;;10.30;99.90;;;;;;5082903;28;20052;-58
2022/12/24 12:16:59;;;;;;;11.35;2.65;;;10.50;99.90;;;;;;5086877;28;20036;-57
2022/12/24 12:19:37;;;;;;;14.05;2.28;;;10.60;99.90;;;;;;5086857;28;20036;-58
2022/12/24 12:22:09;;;;;;;14.80;3.10;;;10.70;99.90;;;;;;5077501;28;20044;-58
2022/12/24 12:24:45;;;;;;;16.95;2.63;;;10.70;99.90;;;;;;5072854;28;20049;-58
2022/12/24 12:27:24;;;;;;;16.42;3.28;;;10.80;99.90;;;;;;5069070;28;20052;-59
2022/12/24 12:29:58;;;;;;;20.23;3.10;;;10.90;99.90;;;;;;5081879;28;20048;-59
2022/12/24 12:32:36;;;;;;;22.13;2.72;;;10.80;99.90;;;;;;5084276;28;20048;-60
2022/12/24 12:35:16;;;;;;;16.92;2.58;;;10.60;99.90;;;;;;5085461;28;20082;-61
2022/12/24 12:37:51;;;;;;;30.50;5.35;;;10.60;99.90;;;;;;5079442;28;20048;-58
2022/12/24 12:40:19;;;;;;;12.80;2.58;;;10.40;99.90;;;;;;5088005;28;20055;-58
2022/12/24 12:43:13;;;;;;;15.55;3.00;;;10.10;99.90;;;;;;5077626;28;20044;-59
2022/12/24 12:45:59;;;;;;;16.17;4.43;;;9.70;99.90;;;;;;5066809;28;20056;-59
2022/12/24 12:48:52;;;;;;;10.32;2.55;;;9.40;99.90;;;;;;5080750;28;20052;-59
2022/12/24 12:52:01;;;;;;;13.25;3.03;;;9.10;99.90;;;;;;5077873;28;20491;-57
2022/12/24 12:54:39;;;;;;;17.45;3.15;;;8.80;99.90;;;;;;5075249;28;20071;-59
2022/12/24 12:57:12;;;;;;;17.48;3.55;;;8.50;99.90;;;;;;5068398;28;20037;-59
2022/12/24 12:59:46;;;;;;;18.45;3.88;;;8.30;99.90;;;;;;5087835;28;20507;-59
2022/12/24 13:02:32;;;;;;;24.88;4.60;;;8.40;99.90;;;;;;5075812;28;20037;-59
2022/12/24 13:05:14;;;;;;;18.80;4.78;;;8.40;99.90;;;;;;5086738;28;20040;-61
2022/12/24 13:08:02;;;;;;;27.63;7.65;;;8.30;99.90;;;;;;5087920;28;20056;-61
2022/12/24 13:11:01;;;;;;;16.20;5.97;;;8.10;99.90;;;;;;5086885;28;20519;-60
2022/12/24 13:13:44;;;;;;;19.13;6.57;;;8.00;99.90;;;;;;5077831;28;20048;-61
2022/12/24 13:16:51;;;;;;;19.85;4.68;;;7.80;99.90;;;;;;5086625;28;20476;-60
2022/12/24 13:19:36;;;;;;;20.63;5.43;;;7.70;99.90;;;;;;5067970;28;20056;-60
2022/12/24 13:22:15;;;;;;;15.95;4.22;;;7.60;99.90;;;;;;5086551;28;20048;-59
2022/12/24 13:24:51;;;;;;;29.02;5.22;;;7.60;99.90;;;;;;5087591;28;20036;-59
2022/12/24 13:27:31;;;;;;;18.50;3.72;;;7.50;99.90;;;;;;5087402;28;20608;-58